Martin, MI (49070)

1:38 AM EST on December 04, 2016 (GMT -0500)
Hopkinsburg | | Change Station

Elev 804 ft 42.60 °N, 85.70 °W | Updated 3 seconds ago

Overcast
Overcast
34.5 °F
Feels Like 34 °F
N
0.0
Wind Variable Wind from South
Gusts 0.0 mph

Today
High -- | Low -- °F
--% Chance of Precip.
Yesterday
High -- | Low -- °F
Precip. -- in
Pressure 30.29 in
Visibility 10.0 miles
Clouds Overcast 3000 ft
Windchill 34 °F
Dew Point 29 °F
Humidity 79%
Rainfall 0.00 in
Snow Depth Not available.
7:56 AM 5:09 PM
Waxing Crescent, 20% visible
METAR KAZO 040553Z AUTO 17004KT 10SM OVC030 02/M05 A3026 RMK AO2 SLP256 T00171050 10022 20011 56008
Pressure 30.29 in
Visibility 10.0 miles
Clouds Overcast 3000 ft
Windchill 34 °F
Dew Point 29 °F
Humidity 79%
Rainfall 0.00 in
Snow Depth Not available.
7:56 AM 5:09 PM
Waxing Crescent, 20% visible
METAR KAZO 040553Z AUTO 17004KT 10SM OVC030 02/M05 A3026 RMK AO2 SLP256 T00171050 10022 20011 56008

10-Day Weather Forecast

Almanac

Astronomy

Dec. 04, 2016 Rise Set
Actual Time
Civil Twilight
Nautical Twilight
Astronomical Twilight
Moon
Length of Visible Light
Length of Day
Tomorrow will be .
, % of the Moon is Illuminated

Today's Extremes

State Highs State Lows

Community

WunderPhotos

Upload Photos

1,955,588 photos uploaded!

WunderBlog® & News

Nearby

Air Quality

  Air Quality AQ Index Pollutant
Not available.

Snow Depth

Station Depth Elevation

Earthquake Activity

City Distance Mag. Time & Date
Minimum magnitude displayed is 2.5.

Coastal Water Temperatures

Place Temperature

Stations

Nearby Weather Stations

Station Location Temp. Windchill Dew Point Humidity Wind Precip. Elev Updated Type
                   

Watches & Warnings

There are currently no watches in effect.